createdAt,value
2019-04-14T00:01:02.542Z,78.10
2019-04-14T00:04:13.932Z,78.00
2019-04-14T00:07:18.745Z,77.80
2019-04-14T00:10:24.590Z,77.80
2019-04-14T00:13:28.973Z,78.40
2019-04-14T00:16:33.547Z,77.40
2019-04-14T00:19:39.080Z,77.40
2019-04-14T00:22:44.552Z,78.10
2019-04-14T00:25:50.105Z,77.10
2019-04-14T00:28:55.391Z,77.10
2019-04-14T00:32:00.887Z,77.10
2019-04-14T00:35:27.753Z,77.10
2019-04-14T00:38:36.838Z,77.00
2019-04-14T00:42:02.128Z,76.90
2019-04-14T00:45:37.077Z,76.90
2019-04-14T00:48:32.058Z,77.00
2019-04-14T00:51:38.354Z,77.80
2019-04-14T00:54:43.508Z,77.00
2019-04-14T00:57:48.674Z,77.00
2019-04-14T01:00:53.835Z,77.10
2019-04-14T01:03:59.149Z,77.50
2019-04-14T01:07:04.336Z,78.00
2019-04-14T01:10:08.862Z,78.30
2019-04-14T01:13:14.132Z,78.60
2019-04-14T01:16:20.836Z,79.20
2019-04-14T01:19:24.487Z,79.50
2019-04-14T01:22:29.243Z,79.70
2019-04-14T01:25:34.660Z,80.40
2019-04-14T01:28:39.697Z,80.60
2019-04-14T01:31:44.663Z,80.60
2019-04-14T01:34:51.991Z,80.80
2019-04-14T01:37:55.117Z,80.90
2019-04-14T01:40:59.921Z,81.00
2019-04-14T01:44:04.644Z,80.90
2019-04-14T01:47:09.448Z,81.10
2019-04-14T01:50:14.866Z,80.90
2019-04-14T01:53:37.904Z,81.00
2019-04-14T01:57:03.068Z,81.30
2019-04-14T02:00:33.827Z,81.00
2019-04-14T02:03:38.766Z,81.00
2019-04-14T02:06:44.126Z,81.10
2019-04-14T02:09:48.931Z,81.00
2019-04-14T02:12:54.218Z,81.00
2019-04-14T02:16:12.073Z,80.50
2019-04-14T02:19:04.816Z,80.80
2019-04-14T02:22:09.541Z,80.60
2019-04-14T02:25:14.281Z,80.40
2019-04-14T02:28:19.812Z,80.20
2019-04-14T02:31:46.847Z,80.10
2019-04-14T02:34:56.791Z,79.70
2019-04-14T02:38:14.501Z,79.50
2019-04-14T02:41:13.020Z,79.20
2019-04-14T02:44:27.089Z,79.00
2019-04-14T02:50:28.539Z,78.50
2019-04-14T02:53:52.796Z,78.30
2019-04-14T02:56:36.313Z,78.10
2019-04-14T02:59:46.472Z,78.10
2019-04-14T03:05:57.973Z,77.60
2019-04-14T03:12:09.403Z,77.50
2019-04-14T03:15:20.135Z,78.00
2019-04-14T03:18:37.886Z,77.00
2019-04-14T03:22:12.370Z,76.80
2019-04-14T03:25:13.151Z,76.40
2019-04-14T03:28:36.557Z,76.20
2019-04-14T03:34:53.762Z,75.90
2019-04-14T03:40:58.525Z,75.00
2019-04-14T03:43:54.604Z,74.70
2019-04-14T03:50:16.054Z,74.10
2019-04-14T03:53:22.155Z,73.80
2019-04-14T03:56:35.698Z,73.20
2019-04-14T03:59:41.271Z,74.00
2019-04-14T04:02:46.613Z,73.00
2019-04-14T04:05:52.075Z,72.60
2019-04-14T04:08:57.441Z,72.70
2019-04-14T04:12:03.013Z,72.30
2019-04-14T04:15:08.383Z,72.30
2019-04-14T04:18:20.145Z,72.00
2019-04-14T04:21:44.372Z,71.80
2019-04-14T04:25:07.346Z,71.90
2019-04-14T04:28:30.671Z,71.80
2019-04-14T04:31:52.850Z,71.40
2019-04-14T04:35:08.822Z,71.50
2019-04-14T04:38:33.333Z,71.40
2019-04-14T04:41:38.660Z,71.00
2019-04-14T04:44:44.120Z,71.00
2019-04-14T04:47:49.186Z,70.90
2019-04-14T04:50:54.202Z,70.40
2019-04-14T04:53:59.449Z,69.80
2019-04-14T04:57:04.592Z,70.50
2019-04-14T05:00:09.352Z,70.50
2019-04-14T05:03:14.564Z,70.50
2019-04-14T05:06:57.321Z,69.90
2019-04-14T05:10:19.561Z,69.70
2019-04-14T05:13:29.863Z,69.60
2019-04-14T05:16:34.604Z,68.50
2019-04-14T05:19:40.180Z,67.80
2019-04-14T05:22:46.080Z,67.90
2019-04-14T05:25:51.591Z,67.80
2019-04-14T05:28:56.996Z,68.00
2019-04-14T05:32:02.380Z,67.80
2019-04-14T05:35:07.402Z,67.70
2019-04-14T05:38:12.646Z,66.50
2019-04-14T05:41:17.994Z,67.20
2019-04-14T05:44:23.151Z,67.40
2019-04-14T05:47:28.353Z,67.00
2019-04-14T05:50:33.528Z,67.00
2019-04-14T05:53:39.303Z,67.10
2019-04-14T05:56:44.754Z,66.40
2019-04-14T05:59:49.126Z,66.60
2019-04-14T06:02:53.372Z,66.10
2019-04-14T06:05:57.660Z,66.20
2019-04-14T06:09:02.006Z,66.40
2019-04-14T06:12:06.311Z,65.00
2019-04-14T06:15:12.207Z,65.00
2019-04-14T06:18:16.584Z,64.30
2019-04-14T06:21:20.879Z,65.90
2019-04-14T06:24:25.209Z,64.60
2019-04-14T06:27:29.819Z,64.30
2019-04-14T06:31:02.238Z,65.60
2019-04-14T06:34:22.214Z,65.90
2019-04-14T06:37:51.483Z,66.20
2019-04-14T06:40:59.781Z,65.40
2019-04-14T06:44:03.999Z,65.70
2019-04-14T06:47:08.265Z,65.30
2019-04-14T06:50:14.023Z,63.80
2019-04-14T06:53:18.284Z,64.30
2019-04-14T06:56:22.671Z,64.70
2019-04-14T06:59:27.163Z,64.10
2019-04-14T07:02:31.799Z,64.80
2019-04-14T07:05:36.058Z,63.70
2019-04-14T07:08:40.490Z,64.00
2019-04-14T07:11:44.783Z,64.40
2019-04-14T07:14:49.138Z,63.70
2019-04-14T07:17:53.581Z,63.10
2019-04-14T07:20:57.801Z,64.10
2019-04-14T07:24:02.070Z,62.70
2019-04-14T07:27:06.455Z,62.50
2019-04-14T07:30:35.534Z,63.30
2019-04-14T07:33:57.767Z,63.60
2019-04-14T07:37:19.018Z,63.60
2019-04-14T07:40:51.837Z,62.50
2019-04-14T07:44:08.154Z,62.60
2019-04-14T07:47:19.147Z,62.90
2019-04-14T07:50:41.652Z,63.60
2019-04-14T07:54:03.600Z,63.70
2019-04-14T07:57:26.899Z,64.20
2019-04-14T08:00:37.454Z,63.10
2019-04-14T08:04:13.022Z,63.20
2019-04-14T08:07:17.391Z,63.90
2019-04-14T08:10:21.659Z,62.70
2019-04-14T08:13:28.432Z,63.70
2019-04-14T08:16:32.675Z,62.80
2019-04-14T08:19:36.959Z,62.90
2019-04-14T08:22:41.226Z,62.30
2019-04-14T08:25:45.512Z,62.10
2019-04-14T08:28:49.804Z,62.50
2019-04-14T08:31:57.079Z,61.60
2019-04-14T08:35:01.434Z,62.30
2019-04-14T08:38:05.921Z,62.50
2019-04-14T08:41:10.181Z,61.80
2019-04-14T08:44:26.855Z,61.70
2019-04-14T08:47:45.477Z,61.70
2019-04-14T08:51:15.170Z,60.80
2019-04-14T08:54:44.290Z,59.80
2019-04-14T08:57:59.100Z,58.10
2019-04-14T09:01:09.291Z,58.10
2019-04-14T09:04:21.442Z,58.60
2019-04-14T09:07:47.851Z,59.40
2019-04-14T09:10:56.195Z,59.70
2019-04-14T09:14:00.467Z,58.80
2019-04-14T09:17:04.774Z,59.40
2019-04-14T09:20:09.232Z,58.50
2019-04-14T09:23:15.621Z,57.50
2019-04-14T09:26:19.889Z,56.90
2019-04-14T09:29:24.178Z,56.70
2019-04-14T09:32:29.874Z,57.50
2019-04-14T09:35:35.583Z,56.40
2019-04-14T09:38:40.022Z,57.00
2019-04-14T09:41:44.391Z,56.70
2019-04-14T09:44:48.831Z,57.30
2019-04-14T09:47:53.136Z,57.50
2019-04-14T09:51:04.657Z,57.60
2019-04-14T09:54:03.430Z,57.00
2019-04-14T09:57:08.071Z,57.20
2019-04-14T10:00:14.795Z,57.30
2019-04-14T10:03:19.140Z,58.20
2019-04-14T10:06:23.440Z,58.10
2019-04-14T10:09:27.920Z,56.70
2019-04-14T10:12:32.210Z,57.00
2019-04-14T10:15:36.482Z,57.80
2019-04-14T10:18:40.941Z,55.90
2019-04-14T10:21:45.220Z,56.10
2019-04-14T10:24:49.538Z,55.90
2019-04-14T10:27:53.928Z,56.00
2019-04-14T10:30:58.308Z,55.80
2019-04-14T10:34:03.583Z,55.70
2019-04-14T10:37:07.847Z,55.00
2019-04-14T10:40:12.136Z,54.00
2019-04-14T10:43:16.452Z,53.60
2019-04-14T10:46:20.701Z,52.60
2019-04-14T10:49:25.135Z,52.20
2019-04-14T10:52:29.384Z,52.40
2019-04-14T10:55:33.622Z,51.50
2019-04-14T10:58:37.956Z,51.00
2019-04-14T11:01:42.348Z,48.60
2019-04-14T11:04:46.607Z,49.20
2019-04-14T11:07:50.922Z,49.10
2019-04-14T11:10:55.195Z,49.30
2019-04-14T11:13:59.524Z,48.50
2019-04-14T11:17:03.845Z,48.20
2019-04-14T11:20:08.444Z,48.10
2019-04-14T11:23:12.784Z,48.20
2019-04-14T11:26:17.041Z,47.90
2019-04-14T11:29:21.462Z,46.80
2019-04-14T11:32:42.411Z,46.50
2019-04-14T11:36:07.184Z,46.20
2019-04-14T11:39:13.451Z,46.30
2019-04-14T11:42:17.741Z,44.60
2019-04-14T11:45:22.012Z,45.80
2019-04-14T11:48:26.193Z,45.80
2019-04-14T11:51:30.510Z,46.10
2019-04-14T11:54:34.858Z,44.40
2019-04-14T11:57:39.234Z,44.50
2019-04-14T12:01:06.461Z,44.00
2019-04-14T12:04:42.178Z,43.40
2019-04-14T12:08:10.548Z,43.80
2019-04-14T12:11:17.051Z,42.60
2019-04-14T12:14:21.415Z,42.80
2019-04-14T12:17:26.103Z,41.00
2019-04-14T12:20:30.488Z,42.30
2019-04-14T12:23:34.759Z,43.00
2019-04-14T12:26:39.038Z,42.50
2019-04-14T12:29:43.405Z,42.20
2019-04-14T12:32:47.915Z,40.70
2019-04-14T12:35:52.174Z,41.50
2019-04-14T12:38:56.513Z,41.40
2019-04-14T12:42:24.398Z,40.80
2019-04-14T12:45:50.964Z,40.70
2019-04-14T12:49:03.214Z,40.90
2019-04-14T12:52:35.523Z,41.00
2019-04-14T12:55:39.910Z,40.60
2019-04-14T12:59:18.315Z,40.60
2019-04-14T13:02:25.607Z,40.80
2019-04-14T13:05:29.953Z,40.80
2019-04-14T13:08:34.252Z,40.80
2019-04-14T13:11:38.463Z,40.70
2019-04-14T13:14:43.882Z,41.10
2019-04-14T13:17:48.325Z,41.40
2019-04-14T13:20:52.773Z,41.20
2019-04-14T13:23:57.070Z,40.70
2019-04-14T13:27:01.368Z,40.30
2019-04-14T13:30:07.932Z,40.40
2019-04-14T13:33:12.235Z,39.90
2019-04-14T13:36:16.598Z,39.70
2019-04-14T13:39:20.943Z,39.00
2019-04-14T13:42:25.222Z,39.00
2019-04-14T13:45:30.220Z,39.10
2019-04-14T13:48:37.332Z,39.20
2019-04-14T13:51:41.647Z,39.50
2019-04-14T13:54:47.591Z,39.10
2019-04-14T13:57:51.909Z,39.20
2019-04-14T14:00:56.300Z,39.90
2019-04-14T14:04:01.174Z,39.80
2019-04-14T14:07:05.827Z,39.30
2019-04-14T14:10:12.822Z,39.20
2019-04-14T14:13:38.049Z,39.30
2019-04-14T14:17:08.874Z,39.30
2019-04-14T14:20:21.711Z,39.10
2019-04-14T14:23:40.353Z,39.20
2019-04-14T14:26:45.428Z,38.50
2019-04-14T14:29:49.853Z,38.10
2019-04-14T14:32:54.319Z,38.00
2019-04-14T14:35:58.848Z,38.50
2019-04-14T14:39:03.527Z,37.70
2019-04-14T14:42:09.078Z,37.20
2019-04-14T14:45:51.074Z,37.20
2019-04-14T14:49:22.517Z,37.10
2019-04-14T14:52:28.264Z,37.30
2019-04-14T14:55:32.623Z,36.80
2019-04-14T14:58:36.938Z,37.20
2019-04-14T15:01:41.308Z,37.00
2019-04-14T15:04:45.490Z,36.60
2019-04-14T15:07:49.932Z,36.80
2019-04-14T15:10:54.119Z,36.70
2019-04-14T15:13:58.437Z,36.80
2019-04-14T15:17:02.792Z,36.20
2019-04-14T15:20:08.181Z,36.10
2019-04-14T15:23:24.353Z,36.10
2019-04-14T15:26:18.639Z,35.90
2019-04-14T15:29:23.033Z,35.60
2019-04-14T15:32:27.624Z,36.00
2019-04-14T15:35:32.139Z,36.20
2019-04-14T15:38:36.579Z,36.30
2019-04-14T15:41:40.930Z,36.60
2019-04-14T15:44:45.251Z,35.70
2019-04-14T15:47:49.630Z,36.60
2019-04-14T15:50:54.018Z,36.90
2019-04-14T15:53:59.462Z,36.60
2019-04-14T15:57:21.843Z,35.80
2019-04-14T16:01:03.566Z,36.90
2019-04-14T16:04:16.541Z,36.90
2019-04-14T16:07:38.683Z,36.90
2019-04-14T16:10:48.601Z,37.20
2019-04-14T16:14:11.386Z,37.60
2019-04-14T16:17:33.650Z,37.20
2019-04-14T16:20:39.643Z,36.50
2019-04-14T16:23:50.309Z,36.20
2019-04-14T16:27:03.080Z,36.70
2019-04-14T16:30:35.931Z,36.90
2019-04-14T16:33:58.154Z,36.80
2019-04-14T16:37:03.670Z,36.30
2019-04-14T16:40:08.390Z,36.90
2019-04-14T16:43:13.822Z,37.40
2019-04-14T16:46:18.179Z,37.70
2019-04-14T16:49:22.568Z,38.00
2019-04-14T16:52:46.102Z,38.20
2019-04-14T16:56:02.071Z,38.50
2019-04-14T16:59:10.105Z,38.80
2019-04-14T17:02:14.630Z,39.00
2019-04-14T17:05:18.917Z,39.20
2019-04-14T17:08:23.272Z,39.60
2019-04-14T17:11:29.011Z,39.80
2019-04-14T17:14:38.508Z,39.90
2019-04-14T17:18:01.917Z,39.40
2019-04-14T17:21:24.140Z,39.90
2019-04-14T17:24:46.367Z,40.00
2019-04-14T17:28:09.716Z,39.20
2019-04-14T17:31:23.180Z,39.60
2019-04-14T17:34:37.976Z,39.80
2019-04-14T17:38:04.208Z,40.00
2019-04-14T17:41:20.563Z,40.20
2019-04-14T17:44:39.235Z,40.40
2019-04-14T17:48:00.574Z,40.70
2019-04-14T17:51:09.443Z,40.90
2019-04-14T17:54:32.838Z,41.10
2019-04-14T17:57:53.270Z,41.30
2019-04-14T18:01:16.599Z,41.70
2019-04-14T18:04:32.964Z,41.80
2019-04-14T18:08:00.021Z,42.40
2019-04-14T18:11:20.283Z,42.30
2019-04-14T18:14:49.707Z,42.50
2019-04-14T18:18:12.689Z,42.70
2019-04-14T18:21:17.281Z,42.80
2019-04-14T18:24:21.632Z,43.10
2019-04-14T18:27:28.956Z,43.30
2019-04-14T18:30:38.243Z,44.30
2019-04-14T18:33:56.339Z,44.40
2019-04-14T18:37:08.647Z,44.50
2019-04-14T18:40:20.341Z,44.60
2019-04-14T18:43:53.144Z,44.70
2019-04-14T18:47:07.962Z,44.80
2019-04-14T18:50:20.284Z,44.90
2019-04-14T18:53:52.627Z,45.00
2019-04-14T18:57:34.357Z,44.90
2019-04-14T19:00:57.536Z,45.00
2019-04-14T19:04:02.449Z,45.20
2019-04-14T19:07:08.863Z,45.20
2019-04-14T19:10:13.432Z,45.30
2019-04-14T19:13:27.758Z,45.50
2019-04-14T19:16:39.688Z,45.60
2019-04-14T19:20:00.594Z,45.70
2019-04-14T19:22:54.823Z,45.90
2019-04-14T19:25:59.179Z,46.10
2019-04-14T19:29:03.543Z,46.10
2019-04-14T19:32:08.403Z,46.30
2019-04-14T19:35:12.831Z,46.30
2019-04-14T19:38:17.792Z,46.40
2019-04-14T19:41:22.754Z,46.30
2019-04-14T19:44:28.669Z,46.40
2019-04-14T19:47:33.107Z,46.50
2019-04-14T19:50:37.607Z,46.40
2019-04-14T19:53:42.022Z,46.40
2019-04-14T19:56:49.207Z,46.20
2019-04-14T19:59:53.490Z,46.10
2019-04-14T20:02:57.995Z,46.30
2019-04-14T20:06:02.272Z,46.30
2019-04-14T20:09:08.352Z,46.20
2019-04-14T20:12:13.008Z,46.10
2019-04-14T20:15:23.552Z,46.00
2019-04-14T20:18:45.177Z,46.20
2019-04-14T20:22:11.395Z,45.90
2019-04-14T20:25:41.174Z,46.00
2019-04-14T20:29:09.519Z,46.60
2019-04-14T20:32:27.514Z,45.90
2019-04-14T20:35:31.920Z,46.00
2019-04-14T20:38:36.264Z,45.80
2019-04-14T20:41:40.673Z,45.90
2019-04-14T20:44:44.952Z,45.90
2019-04-14T20:47:49.374Z,45.80
2019-04-14T20:50:53.760Z,46.00
2019-04-14T20:54:01.262Z,46.00
2019-04-14T20:57:05.554Z,45.90
2019-04-14T21:00:10.544Z,46.00
2019-04-14T21:03:34.532Z,45.90
2019-04-14T21:06:56.101Z,45.80
2019-04-14T21:10:11.183Z,45.80
2019-04-14T21:13:20.055Z,45.80
2019-04-14T21:16:46.123Z,45.70
2019-04-14T21:20:09.406Z,45.70
2019-04-14T21:23:27.419Z,45.70
2019-04-14T21:26:42.955Z,45.80
2019-04-14T21:30:06.255Z,45.80
2019-04-14T21:33:16.007Z,45.70
2019-04-14T21:36:48.592Z,45.60
2019-04-14T21:40:17.786Z,46.00
2019-04-14T21:43:22.173Z,45.80
2019-04-14T21:46:28.003Z,45.80
2019-04-14T21:49:32.202Z,45.90
2019-04-14T21:52:42.072Z,45.70
2019-04-14T21:55:46.411Z,45.80
2019-04-14T21:59:12.878Z,45.90
2019-04-14T22:02:36.089Z,46.00
2019-04-14T22:05:49.595Z,45.90
2019-04-14T22:08:54.298Z,45.70
2019-04-14T22:11:59.691Z,45.80
2019-04-14T22:15:04.152Z,45.80
2019-04-14T22:18:08.574Z,45.90
2019-04-14T22:21:13.928Z,46.00
2019-04-14T22:24:18.202Z,45.90
2019-04-14T22:27:22.450Z,46.00
2019-04-14T22:30:26.807Z,46.00
2019-04-14T22:33:31.223Z,46.10
2019-04-14T22:36:35.531Z,46.00
2019-04-14T22:39:39.781Z,46.10
2019-04-14T22:42:44.370Z,46.00
2019-04-14T22:45:49.803Z,46.10
2019-04-14T22:48:55.830Z,46.30
2019-04-14T22:52:00.055Z,46.60
2019-04-14T22:55:05.149Z,46.70
2019-04-14T22:58:09.482Z,46.80
2019-04-14T23:01:27.016Z,46.80
2019-04-14T23:04:50.363Z,47.00
2019-04-14T23:08:16.365Z,47.00
2019-04-14T23:11:42.583Z,47.10
2019-04-14T23:15:14.834Z,47.60
2019-04-14T23:18:38.121Z,47.10
2019-04-14T23:22:07.416Z,47.20
2019-04-14T23:25:12.054Z,47.30
2019-04-14T23:28:16.342Z,47.30
2019-04-14T23:31:20.707Z,47.40
2019-04-14T23:34:25.079Z,47.40
2019-04-14T23:37:29.402Z,47.30
2019-04-14T23:40:33.691Z,47.30
2019-04-14T23:43:37.965Z,47.40
2019-04-14T23:46:42.429Z,47.30
2019-04-14T23:49:46.947Z,47.50
2019-04-14T23:52:51.338Z,47.50
2019-04-14T23:55:55.651Z,47.60
2019-04-14T23:58:59.951Z,47.70
